Time;durP1;ratioP1;P1;durP2;ratioP2;P2;SDS_P1;SDS_P2;PMS_P1;PMS_P2;Temp;Humidity;BMP_temperature;BMP_pressure;BME280_temperature;BME280_humidity;BME280_pressure;Samples;Min_cycle;Max_cycle;Signal;HPM_P1;HPM_P2
2023/10/07 00:00:31;;;;;;;;;;;;;;;19.24;48.71;100510.00;3170007;28;19924;-68
2023/10/07 00:02:12;;;;;;;;;;;;;;;19.26;48.84;100509.91;3172081;28;19928;-68
2023/10/07 00:03:43;;;;;;;;;;;;;;;19.26;48.89;100515.19;3170687;28;19981;-67
2023/10/07 00:05:16;;;;;;;;;;;;;;;19.28;48.77;100513.25;3168020;28;20312;-68
2023/10/07 00:06:48;;;;;;;;;;;;;;;19.28;48.70;100505.34;3166634;28;19924;-67
2023/10/07 00:08:20;;;;;;;;;;;;;;;19.29;48.60;100510.53;3172448;28;20029;-67
2023/10/07 00:09:51;;;;;;;;;;;;;;;19.29;48.71;100513.16;3172312;28;19935;-68
2023/10/07 00:11:22;;;;;;;;;;;;;;;19.29;48.81;100515.81;3172327;28;20010;-67
2023/10/07 00:12:57;;;;;;;;;;;;;;;19.29;48.65;100515.81;3172404;28;19930;-67
2023/10/07 00:14:30;;;;;;;;;;;;;;;19.30;48.81;100514.84;3172456;28;20336;-68
2023/10/07 00:16:00;;;;;;;;;;;;;;;19.30;48.84;100516.66;3173165;27;20358;-67
2023/10/07 00:17:35;;;;;;;;;;;;;;;19.28;48.82;100522.03;3172697;28;19928;-67
2023/10/07 00:19:08;;;;;;;;;;;;;;;19.27;48.88;100517.72;3172617;28;20293;-67
2023/10/07 00:20:41;;;;;;;;;;;;;;;19.26;48.71;100518.66;3172129;28;20408;-67
2023/10/07 00:22:14;;;;;;;;;;;;;;;19.24;48.95;100517.94;3159910;28;20397;-68
2023/10/07 00:23:45;;;;;;;;;;;;;;;19.24;48.95;100522.38;3172327;28;20320;-67
2023/10/07 00:25:19;;;;;;;;;;;;;;;19.22;49.04;100517.19;3172183;28;19927;-68
2023/10/07 00:26:49;;;;;;;;;;;;;;;19.22;49.00;100524.25;3172328;28;19939;-68
2023/10/07 00:28:31;;;;;;;;;;;;;;;19.21;48.96;100527.88;3171600;28;20006;-68
2023/10/07 00:30:12;;;;;;;;;;;;;;;19.23;49.10;100528.59;3172064;28;19985;-68
2023/10/07 00:31:46;;;;;;;;;;;;;;;19.22;49.26;100530.38;3172339;28;19931;-68
2023/10/07 00:33:21;;;;;;;;;;;;;;;19.21;49.03;100533.97;3171850;28;19935;-67
2023/10/07 00:34:53;;;;;;;;;;;;;;;19.20;49.28;100537.59;3165209;28;20384;-68
2023/10/07 00:36:41;;;;;;;;;;;;;;;19.17;49.15;100540.44;3164154;28;20014;-68
2023/10/07 00:38:14;;;;;;;;;;;;;;;19.18;49.15;100542.13;3170096;28;20057;-68
2023/10/07 00:39:46;;;;;;;;;;;;;;;19.18;49.20;100538.63;3172202;28;20434;-67
2023/10/07 00:41:18;;;;;;;;;;;;;;;19.18;49.23;100541.28;3171739;28;20037;-68
2023/10/07 00:42:50;;;;;;;;;;;;;;;19.19;49.27;100542.97;3172082;28;19946;-68
2023/10/07 00:44:24;;;;;;;;;;;;;;;19.20;49.42;100539.38;3167377;28;19928;-67
2023/10/07 00:46:06;;;;;;;;;;;;;;;19.18;49.30;100543.91;3166501;28;20365;-67
2023/10/07 00:47:40;;;;;;;;;;;;;;;19.13;49.44;100541.59;3172139;28;19928;-67
2023/10/07 00:49:20;;;;;;;;;;;;;;;19.11;49.51;100546.16;3171515;28;19937;-67
2023/10/07 00:50:52;;;;;;;;;;;;;;;19.11;49.49;100548.78;3171715;28;20415;-68
2023/10/07 00:52:27;;;;;;;;;;;;;;;19.11;49.51;100546.16;3171726;28;19951;-67
2023/10/07 00:54:15;;;;;;;;;;;;;;;19.11;49.56;100540.88;3170169;28;19928;-67
2023/10/07 00:55:47;;;;;;;;;;;;;;;19.12;49.67;100534.63;3171930;28;20364;-67
2023/10/07 00:57:24;;;;;;;;;;;;;;;19.09;49.76;100542.75;3171605;28;19938;-67
2023/10/07 00:58:56;;;;;;;;;;;;;;;19.05;49.82;100536.00;3171960;28;19931;-68
2023/10/07 01:00:42;;;;;;;;;;;;;;;19.00;49.91;100538.94;3171515;28;19924;-67
2023/10/07 01:02:18;;;;;;;;;;;;;;;18.94;50.11;100536.72;3171308;28;19927;-68
2023/10/07 01:03:49;;;;;;;;;;;;;;;18.89;50.58;100533.56;3169597;28;20019;-68
2023/10/07 01:05:27;;;;;;;;;;;;;;;18.85;50.64;100540.00;3167363;28;20389;-68
2023/10/07 01:07:03;;;;;;;;;;;;;;;18.81;50.78;100535.88;3166988;28;19923;-68
2023/10/07 01:08:35;;;;;;;;;;;;;;;18.82;50.57;100533.13;3171648;28;19942;-67
2023/10/07 01:10:13;;;;;;;;;;;;;;;18.81;50.67;100534.09;3171336;28;20065;-66
2023/10/07 01:11:46;;;;;;;;;;;;;;;18.81;50.37;100534.09;3171108;28;20610;-68
2023/10/07 01:13:29;;;;;;;;;;;;;;;18.80;50.48;100535.03;3170854;28;19927;-67
2023/10/07 01:15:00;;;;;;;;;;;;;;;18.76;50.41;100530.06;3171642;28;19996;-67
2023/10/07 01:16:42;;;;;;;;;;;;;;;18.69;50.20;100537.50;3171718;27;20351;-67
2023/10/07 01:18:14;;;;;;;;;;;;;;;18.63;50.08;100537.91;3171627;28;19936;-67
2023/10/07 01:19:52;;;;;;;;;;;;;;;18.61;50.10;100540.69;3171814;28;19947;-68
2023/10/07 01:21:33;;;;;;;;;;;;;;;18.60;49.99;100532.84;3171248;28;20415;-67
2023/10/07 01:23:07;;;;;;;;;;;;;;;18.59;49.97;100533.81;3171417;28;19924;-68
2023/10/07 01:24:46;;;;;;;;;;;;;;;18.58;49.76;100540.03;3171368;28;19942;-67
2023/10/07 01:26:22;;;;;;;;;;;;;;;18.57;49.62;100530.41;3171489;28;19935;-67
2023/10/07 01:27:53;;;;;;;;;;;;;;;18.58;49.37;100534.75;3170320;28;19945;-68
2023/10/07 01:29:28;;;;;;;;;;;;;;;18.58;49.33;100532.13;3171393;28;19990;-68
2023/10/07 01:31:07;;;;;;;;;;;;;;;18.57;48.99;100527.78;3171206;28;19927;-69
2023/10/07 01:32:48;;;;;;;;;;;;;;;18.56;49.00;100532.22;3171493;28;20320;-67
2023/10/07 01:34:19;;;;;;;;;;;;;;;18.56;48.84;100524.31;3165970;28;20321;-68
2023/10/07 01:36:16;;;;;;;;;;;;;;;18.55;48.75;100533.16;3167542;28;19935;-67
2023/10/07 01:37:52;;;;;;;;;;;;;;;18.54;48.57;100527.97;3165976;28;19955;-67
2023/10/07 01:39:26;;;;;;;;;;;;;;;18.49;48.56;100530.94;3171186;28;20041;-67
2023/10/07 01:41:04;;;;;;;;;;;;;;;18.48;48.39;100534.50;3171434;28;20297;-67
2023/10/07 01:42:37;;;;;;;;;;;;;;;18.45;48.18;100525.97;3171692;28;20026;-66
2023/10/07 01:44:10;;;;;;;;;;;;;;;18.39;48.27;100528.06;3168319;28;19980;-66
2023/10/07 01:45:40;;;;;;;;;;;;;;;18.36;48.11;100525.63;3167839;28;19981;-66
2023/10/07 01:47:23;;;;;;;;;;;;;;;18.33;48.00;100525.81;3171426;27;19989;-67
2023/10/07 01:48:55;;;;;;;;;;;;;;;18.29;47.93;100521.72;3171192;28;20382;-67
2023/10/07 01:50:32;;;;;;;;;;;;;;;18.28;47.92;100514.75;3167116;28;20026;-68
2023/10/07 01:52:05;;;;;;;;;;;;;;;18.31;47.72;100521.59;3171195;28;19995;-68
2023/10/07 01:53:38;;;;;;;;;;;;;;;18.30;47.62;100518.13;3171514;28;19984;-68
2023/10/07 01:55:10;;;;;;;;;;;;;;;18.30;47.65;100520.75;3171265;28;19931;-67
2023/10/07 01:56:42;;;;;;;;;;;;;;;18.30;47.52;100514.63;3170685;28;19924;-67
2023/10/07 01:58:13;;;;;;;;;;;;;;;18.29;47.28;100520.88;3171002;28;19924;-67
2023/10/07 01:59:45;;;;;;;;;;;;;;;18.27;47.28;100520.97;3171242;28;20352;-67
2023/10/07 02:01:17;;;;;;;;;;;;;;;18.26;47.16;100518.44;3170508;28;19924;-67
2023/10/07 02:02:50;;;;;;;;;;;;;;;18.21;47.32;100516.09;3171189;28;20014;-68
2023/10/07 02:04:26;;;;;;;;;;;;;;;18.18;47.24;100521.56;3165101;28;19958;-68
2023/10/07 02:05:58;;;;;;;;;;;;;;;18.17;47.17;100519.88;3166220;28;19928;-68
2023/10/07 02:07:29;;;;;;;;;;;;;;;18.16;47.04;100516.41;3169098;28;19923;-68
2023/10/07 02:09:05;;;;;;;;;;;;;;;18.17;46.94;100519.88;3170940;28;19942;-69
2023/10/07 02:10:40;;;;;;;;;;;;;;;18.15;46.79;100519.13;3171051;28;19928;-68
2023/10/07 02:12:18;;;;;;;;;;;;;;;18.13;46.89;100513.09;3170968;28;20395;-68
2023/10/07 02:13:50;;;;;;;;;;;;;;;18.12;46.88;100511.41;3171043;28;20391;-68
2023/10/07 02:15:22;;;;;;;;;;;;;;;18.07;46.85;100517.00;3170704;28;19978;-68
2023/10/07 02:16:53;;;;;;;;;;;;;;;18.07;46.88;100510.88;3172595;27;19936;-69
2023/10/07 02:18:27;;;;;;;;;;;;;;;18.06;46.77;100509.19;3170808;28;20527;-68
2023/10/07 02:20:09;;;;;;;;;;;;;;;18.05;46.81;100515.41;3171206;28;19955;-68
2023/10/07 02:21:41;;;;;;;;;;;;;;;18.04;46.69;100514.53;3170779;28;19924;-68
2023/10/07 02:23:12;;;;;;;;;;;;;;;18.01;46.53;100511.28;3171050;28;20016;-68
2023/10/07 02:24:44;;;;;;;;;;;;;;;17.99;46.55;100513.19;3169892;28;20378;-68
2023/10/07 02:26:19;;;;;;;;;;;;;;;17.96;46.49;100522.13;3170561;28;19924;-69
2023/10/07 02:27:50;;;;;;;;;;;;;;;17.93;46.48;100517.88;3168592;28;19932;-68
2023/10/07 02:29:21;;;;;;;;;;;;;;;17.91;46.58;100519.78;3170726;28;19935;-68
2023/10/07 02:31:00;;;;;;;;;;;;;;;17.89;46.51;100515.53;3170246;28;20369;-68
2023/10/07 02:32:33;;;;;;;;;;;;;;;17.87;46.33;100518.28;3171059;28;20639;-69
2023/10/07 02:34:08;;;;;;;;;;;;;;;17.85;46.29;100525.44;3167241;28;20457;-69
2023/10/07 02:35:39;;;;;;;;;;;;;;;17.81;46.32;100525.75;3166435;28;19924;-68
2023/10/07 02:37:12;;;;;;;;;;;;;;;17.74;46.50;100520.81;3159502;28;19924;-67
2023/10/07 02:38:44;;;;;;;;;;;;;;;17.68;46.50;100523.00;3170723;28;19927;-66
2023/10/07 02:40:19;;;;;;;;;;;;;;;17.63;46.38;100527.69;3170258;28;20323;-66
2023/10/07 02:41:52;;;;;;;;;;;;;;;17.61;46.29;100524.34;3170867;28;19935;-67
2023/10/07 02:43:23;;;;;;;;;;;;;;;17.56;46.48;100519.34;3162033;28;19928;-67
2023/10/07 02:45:00;;;;;;;;;;;;;;;17.50;46.40;100528.47;3160708;28;19970;-67
2023/10/07 02:46:34;;;;;;;;;;;;;;;17.47;46.52;100512.84;3162905;28;20438;-67
2023/10/07 02:48:10;;;;;;;;;;;;;;;17.47;46.46;100517.28;3169292;28;20427;-67
2023/10/07 02:49:46;;;;;;;;;;;;;;;17.43;46.16;100511.38;3171045;28;19924;-68
2023/10/07 02:51:18;;;;;;;;;;;;;;;17.33;46.15;100507.59;3170348;28;19924;-67
2023/10/07 02:52:49;;;;;;;;;;;;;;;17.24;46.14;100521.34;3170268;28;19939;-68
2023/10/07 02:54:21;;;;;;;;;;;;;;;17.15;46.32;100506.13;3170576;28;19945;-66
2023/10/07 02:55:54;;;;;;;;;;;;;;;17.06;46.30;100513.63;3170679;28;20015;-68
2023/10/07 02:57:39;;;;;;;;;;;;;;;17.02;46.31;100516.56;3170309;28;20265;-68
2023/10/07 02:59:22;;;;;;;;;;;;;;;16.96;46.49;100517.75;3170298;28;19947;-68
2023/10/07 03:00:59;;;;;;;;;;;;;;;16.95;46.33;100517.88;3169786;28;19946;-68
2023/10/07 03:02:37;;;;;;;;;;;;;;;16.92;46.26;100513.63;3170199;28;20484;-68
2023/10/07 03:04:10;;;;;;;;;;;;;;;16.93;46.18;100514.47;3166500;28;19924;-68
2023/10/07 03:05:43;;;;;;;;;;;;;;;16.91;46.27;100511.91;3167037;28;19927;-69
2023/10/07 03:07:15;;;;;;;;;;;;;;;16.86;46.35;100514.00;3166068;28;19924;-69
2023/10/07 03:08:58;;;;;;;;;;;;;;;16.77;46.19;100512.78;3170223;28;19938;-69
2023/10/07 03:10:33;;;;;;;;;;;;;;;16.74;46.37;100514.69;3170517;28;19963;-69
2023/10/07 03:12:05;;;;;;;;;;;;;;;16.70;46.60;100519.28;3169821;28;20323;-69
2023/10/07 03:13:38;;;;;;;;;;;;;;;16.69;46.60;100519.38;3170337;28;20338;-69
2023/10/07 03:15:20;;;;;;;;;;;;;;;16.70;46.51;100523.69;3170244;28;19944;-69
2023/10/07 03:16:59;;;;;;;;;;;;;;;16.70;46.48;100524.53;3171647;27;20380;-69
2023/10/07 03:18:31;;;;;;;;;;;;;;;16.72;46.41;100521.84;3169980;28;20007;-70
2023/10/07 03:20:27;;;;;;;;;;;;;;;16.76;46.33;100526.00;3170236;28;19928;-70
2023/10/07 03:22:08;;;;;;;;;;;;;;;16.78;46.28;100524.13;3170154;28;20416;-68
2023/10/07 03:23:46;;;;;;;;;;;;;;;16.75;46.32;100533.00;3170540;28;19928;-68
2023/10/07 03:25:18;;;;;;;;;;;;;;;16.71;46.45;100526.25;3170271;28;20365;-67
2023/10/07 03:26:53;;;;;;;;;;;;;;;16.71;46.38;100522.75;3169968;28;19941;-68
2023/10/07 03:28:26;;;;;;;;;;;;;;;16.71;46.29;100531.50;3170142;28;20005;-69
2023/10/07 03:30:12;;;;;;;;;;;;;;;16.71;46.16;100525.38;3170221;28;20011;-69
2023/10/07 03:31:47;;;;;;;;;;;;;;;16.68;46.20;100528.19;3168186;28;19924;-69
2023/10/07 03:33:23;;;;;;;;;;;;;;;16.64;46.26;100530.16;3170141;28;20324;-68
2023/10/07 03:34:55;;;;;;;;;;;;;;;16.60;46.26;100526.88;3163454;28;19930;-67
2023/10/07 03:36:45;;;;;;;;;;;;;;;16.59;46.39;100527.81;3161842;28;19924;-68
2023/10/07 03:38:15;;;;;;;;;;;;;;;16.59;46.39;100537.47;3167882;28;19943;-67
2023/10/07 03:40:04;;;;;;;;;;;;;;;16.54;46.61;100534.28;3170603;28;19935;-65
2023/10/07 03:41:35;;;;;;;;;;;;;;;16.49;46.48;100531.06;3170451;28;19923;-65
2023/10/07 03:43:10;;;;;;;;;;;;;;;16.42;46.60;100530.59;3160288;28;19935;-65
2023/10/07 03:44:40;;;;;;;;;;;;;;;16.37;46.74;100530.00;3160251;28;19947;-65
2023/10/07 03:46:16;;;;;;;;;;;;;;;16.34;46.61;100532.78;3165702;28;22118;-65
2023/10/07 03:47:47;;;;;;;;;;;;;;;16.31;46.85;100528.56;3170169;28;20320;-65
2023/10/07 03:49:21;;;;;;;;;;;;;;;16.30;46.85;100524.25;3169954;28;19924;-66
2023/10/07 03:50:59;;;;;;;;;;;;;;;16.31;46.79;100528.56;3169970;28;20327;-65
2023/10/07 03:52:34;;;;;;;;;;;;;;;16.35;46.48;100530.06;3169950;28;19928;-65
2023/10/07 03:54:12;;;;;;;;;;;;;;;16.37;46.48;100527.38;3170086;28;19971;-66
2023/10/07 03:55:44;;;;;;;;;;;;;;;16.33;46.84;100528.50;3170012;28;19938;-65
2023/10/07 03:57:15;;;;;;;;;;;;;;;16.32;46.57;100534.66;3169604;28;19982;-66
2023/10/07 03:58:47;;;;;;;;;;;;;;;16.33;46.71;100537.22;3169952;28;20387;-66
2023/10/07 04:00:18;;;;;;;;;;;;;;;16.31;46.67;100533.81;3169347;28;19924;-65
2023/10/07 04:01:53;;;;;;;;;;;;;;;16.29;46.97;100538.31;3169690;28;20627;-66
2023/10/07 04:03:24;;;;;;;;;;;;;;;16.29;46.89;100537.47;3169552;28;19927;-65
2023/10/07 04:05:00;;;;;;;;;;;;;;;16.30;46.73;100545.28;3163773;28;20407;-66
2023/10/07 04:06:30;;;;;;;;;;;;;;;16.32;46.54;100545.16;3163437;28;19928;-66
2023/10/07 04:08:02;;;;;;;;;;;;;;;16.28;46.68;100541.88;3169965;28;19931;-66
2023/10/07 04:09:33;;;;;;;;;;;;;;;16.28;46.67;100546.28;3169942;28;19971;-66
2023/10/07 04:11:07;;;;;;;;;;;;;;;16.29;46.87;100546.19;3170014;28;19927;-67
2023/10/07 04:12:39;;;;;;;;;;;;;;;16.30;46.43;100547.06;3157530;28;19924;-63
2023/10/07 04:14:19;;;;;;;;;;;;;;;16.29;46.67;100542.72;3169262;28;20014;-64
2023/10/07 04:15:52;;;;;;;;;;;;;;;16.27;46.60;100545.44;3168196;28;20471;-64
2023/10/07 04:17:31;;;;;;;;;;;;;;;16.29;46.56;100540.94;3170643;28;19980;-75
2023/10/07 04:19:09;;;;;;;;;;;;;;;16.32;46.73;100545.16;3170070;28;20329;-74
2023/10/07 04:20:57;;;;;;;;;;;;;;;16.33;46.48;100550.34;3170141;28;19923;-76
2023/10/07 04:22:28;;;;;;;;;;;;;;;16.34;46.42;100545.94;3170133;28;20370;-78
2023/10/07 04:24:01;;;;;;;;;;;;;;;16.32;46.45;100547.78;3170493;28;19937;-77
2023/10/07 04:25:31;;;;;;;;;;;;;;;16.34;46.55;100552.03;3170222;28;19932;-77
2023/10/07 04:27:03;;;;;;;;;;;;;;;16.35;46.68;100545.00;3169604;28;20600;-78
2023/10/07 04:28:34;;;;;;;;;;;;;;;16.31;46.70;100551.38;3157484;28;20409;-73
2023/10/07 04:30:09;;;;;;;;;;;;;;;16.21;46.83;100548.44;3169438;28;19930;-71
2023/10/07 04:31:45;;;;;;;;;;;;;;;16.15;47.17;100549.63;3163559;28;20298;-67
2023/10/07 04:33:25;;;;;;;;;;;;;;;16.14;47.08;100544.44;3160188;28;20316;-70
2023/10/07 04:37:10;;;;;;;;;;;;;;;16.22;46.91;100551.91;3157603;28;20349;-71
2023/10/07 04:38:53;;;;;;;;;;;;;;;16.26;46.76;100556.88;3159159;28;19981;-67
2023/10/07 04:42:20;;;;;;;;;;;;;;;16.31;46.59;100560.09;3157262;28;20011;-64
2023/10/07 04:43:54;;;;;;;;;;;;;;;16.30;46.69;100562.84;3157232;28;20040;-65
2023/10/07 04:45:36;;;;;;;;;;;;;;;16.26;46.77;100570.00;3158926;28;19992;-66
2023/10/07 04:47:27;;;;;;;;;;;;;;;16.26;46.71;100563.91;3157233;28;19928;-62
2023/10/07 04:49:12;;;;;;;;;;;;;;;16.24;46.98;100569.28;3160968;28;19930;-62
2023/10/07 04:51:02;;;;;;;;;;;;;;;16.23;47.06;100566.72;3172324;28;19923;-62
2023/10/07 04:52:33;;;;;;;;;;;;;;;16.22;46.87;100570.28;3168975;28;19963;-68
2023/10/07 04:54:05;;;;;;;;;;;;;;;16.23;46.91;100567.56;3170076;28;20083;-70
2023/10/07 04:55:39;;;;;;;;;;;;;;;16.13;46.94;100567.25;3171455;28;20447;-68
2023/10/07 04:57:29;;;;;;;;;;;;;;;15.99;47.33;100564.53;3171111;27;19940;-67
2023/10/07 04:59:00;;;;;;;;;;;;;;;15.87;47.52;100573.09;3170821;28;19993;-69
2023/10/07 05:00:41;;;;;;;;;;;;;;;15.83;47.65;100567.16;3170901;28;19931;-68
2023/10/07 05:02:12;;;;;;;;;;;;;;;15.83;47.79;100567.16;3171259;28;19934;-67
2023/10/07 05:03:44;;;;;;;;;;;;;;;15.85;47.61;100572.31;3169610;28;19932;-68
2023/10/07 05:05:16;;;;;;;;;;;;;;;15.87;47.33;100575.72;3165629;28;20001;-67
2023/10/07 05:06:47;;;;;;;;;;;;;;;15.91;47.53;100577.22;3162242;28;19932;-67
2023/10/07 05:08:19;;;;;;;;;;;;;;;15.95;47.23;100577.94;3170242;28;19931;-67
2023/10/07 05:09:50;;;;;;;;;;;;;;;15.98;47.38;100581.25;3171921;28;20400;-68
2023/10/07 05:11:21;;;;;;;;;;;;;;;15.96;47.23;100585.72;3171860;28;19974;-71
2023/10/07 05:12:55;;;;;;;;;;;;;;;15.91;47.18;100580.72;3159301;28;19929;-68
2023/10/07 05:14:25;;;;;;;;;;;;;;;15.88;47.41;100587.91;3171504;28;19927;-66
2023/10/07 05:15:57;;;;;;;;;;;;;;;15.87;47.57;100583.59;3173464;27;20076;-70
2023/10/07 05:17:29;;;;;;;;;;;;;;;15.87;47.62;100583.59;3174175;27;19952;-67
2023/10/07 05:19:00;;;;;;;;;;;;;;;15.88;47.54;100586.16;3171848;28;19936;-66
2023/10/07 05:20:36;;;;;;;;;;;;;;;15.84;47.72;100581.13;3171538;28;19998;-67
2023/10/07 05:22:14;;;;;;;;;;;;;;;15.84;47.58;100583.75;3171579;28;19988;-66
2023/10/07 05:23:45;;;;;;;;;;;;;;;15.78;47.87;100582.31;3172159;28;19924;-65
2023/10/07 05:25:16;;;;;;;;;;;;;;;15.73;47.93;100583.50;3171618;28;20041;-65
2023/10/07 05:26:47;;;;;;;;;;;;;;;15.68;48.11;100589.84;3171546;28;19924;-65
2023/10/07 05:28:20;;;;;;;;;;;;;;;15.64;48.22;100579.56;3166671;28;19946;-69
2023/10/07 05:29:51;;;;;;;;;;;;;;;15.64;48.31;100580.41;3171752;28;20007;-69
2023/10/07 05:31:23;;;;;;;;;;;;;;;15.67;48.27;100577.63;3171594;28;20352;-69
2023/10/07 05:32:53;;;;;;;;;;;;;;;15.74;48.10;100577.34;3173941;28;19999;-68
2023/10/07 05:34:28;;;;;;;;;;;;;;;15.80;47.87;100579.63;3165539;28;20809;-68
2023/10/07 05:36:01;;;;;;;;;;;;;;;15.84;47.89;100586.41;3164918;28;19934;-68
2023/10/07 05:37:32;;;;;;;;;;;;;;;15.86;47.98;100592.41;3171455;28;19928;-67
2023/10/07 05:39:03;;;;;;;;;;;;;;;15.85;48.21;100594.19;3171567;28;20316;-67
2023/10/07 05:40:36;;;;;;;;;;;;;;;15.87;47.98;100594.94;3171776;28;19928;-70
2023/10/07 05:42:08;;;;;;;;;;;;;;;15.86;48.15;100593.25;3171579;28;19971;-70
2023/10/07 05:43:39;;;;;;;;;;;;;;;15.86;47.95;100595.88;3171677;28;19923;-70
2023/10/07 05:45:14;;;;;;;;;;;;;;;15.87;48.07;100594.94;3165846;28;19927;-67
2023/10/07 05:46:46;;;;;;;;;;;;;;;15.83;48.28;100595.22;3171654;28;19928;-66
2023/10/07 05:48:16;;;;;;;;;;;;;;;15.83;48.46;100595.22;3171282;28;19928;-63
2023/10/07 05:49:49;;;;;;;;;;;;;;;15.86;48.43;100598.50;3167550;28;19946;-66
2023/10/07 05:51:21;;;;;;;;;;;;;;;15.91;48.21;100599.13;3162607;28;19924;-66
2023/10/07 05:52:53;;;;;;;;;;;;;;;15.93;48.25;100602.50;3164621;28;19923;-67
2023/10/07 05:54:24;;;;;;;;;;;;;;;15.92;48.29;100605.22;3170878;28;20317;-64
2023/10/07 05:55:55;;;;;;;;;;;;;;;15.91;48.48;100608.75;3171677;28;19930;-65
2023/10/07 05:57:26;;;;;;;;;;;;;;;15.95;48.29;100612.94;3171351;28;19949;-66
2023/10/07 05:58:57;;;;;;;;;;;;;;;15.99;48.42;100610.97;3164090;28;19948;-67
2023/10/07 06:00:31;;;;;;;;;;;;;;;16.04;48.24;100617.69;3168141;28;20319;-63
2023/10/07 06:02:05;;;;;;;;;;;;;;;16.14;48.11;100610.13;3163359;27;20507;-65
2023/10/07 06:03:36;;;;;;;;;;;;;;;16.26;47.94;100624.38;3167309;28;20293;-66
2023/10/07 06:05:10;;;;;;;;;;;;;;;16.36;47.82;100620.31;3166069;28;19924;-66
2023/10/07 06:06:43;;;;;;;;;;;;;;;16.45;47.63;100617.16;3165964;28;19934;-63
2023/10/07 06:08:15;;;;;;;;;;;;;;;16.57;47.57;100628.75;3166910;28;20021;-66
2023/10/07 06:09:47;;;;;;;;;;;;;;;16.64;47.51;100618.72;3163699;28;19931;-65
2023/10/07 06:11:23;;;;;;;;;;;;;;;16.71;47.53;100615.69;3171270;28;20599;-67
2023/10/07 06:12:53;;;;;;;;;;;;;;;16.83;47.26;100615.00;3170827;28;19924;-67
2023/10/07 06:14:25;;;;;;;;;;;;;;;16.93;47.28;100620.56;3171140;28;20448;-68
2023/10/07 06:15:56;;;;;;;;;;;;;;;16.99;47.26;100617.56;3171875;28;20393;-71
2023/10/07 06:17:28;;;;;;;;;;;;;;;17.08;47.19;100605.66;3170837;28;19951;-72
2023/10/07 06:18:59;;;;;;;;;;;;;;;17.19;47.18;100610.28;3171182;28;19931;-68
2023/10/07 06:20:37;;;;;;;;;;;;;;;17.23;47.26;100614.41;3170755;28;20435;-67
2023/10/07 06:22:12;;;;;;;;;;;;;;;17.31;47.13;100613.97;3171166;28;19924;-65
2023/10/07 06:23:43;;;;;;;;;;;;;;;17.43;47.26;100613.22;3171288;28;20014;-64
2023/10/07 06:25:15;;;;;;;;;;;;;;;17.58;47.20;100611.44;3171087;28;19927;-65
2023/10/07 06:26:46;;;;;;;;;;;;;;;17.80;47.05;100605.72;3166740;28;19991;-67
2023/10/07 06:28:29;;;;;;;;;;;;;;;18.04;47.02;100612.06;3167509;28;20340;-63
2023/10/07 06:30:00;;;;;;;;;;;;;;;18.30;46.83;100620.94;3171304;28;19971;-67
2023/10/07 06:31:32;;;;;;;;;;;;;;;18.52;46.53;100615.16;3161501;28;19924;-63
2023/10/07 06:33:04;;;;;;;;;;;;;;;18.83;46.20;100613.13;3163450;28;19984;-65
2023/10/07 06:34:41;;;;;;;;;;;;;;;19.16;46.19;100599.44;3164533;28;19935;-65
2023/10/07 06:36:14;;;;;;;;;;;;;;;19.47;45.76;100600.84;3159041;28;19935;-64
2023/10/07 06:37:46;;;;;;;;;;;;;;;19.78;45.50;100604.00;3159741;28;19931;-67
2023/10/07 06:39:27;;;;;;;;;;;;;;;20.16;44.85;100603.06;3170712;28;19934;-63
2023/10/07 06:40:58;;;;;;;;;;;;;;;20.50;44.79;100595.28;3165459;28;19931;-65
2023/10/07 06:42:29;;;;;;;;;;;;;;;20.77;44.51;100595.06;3160657;28;20158;-66
2023/10/07 06:44:02;;;;;;;;;;;;;;;21.06;44.07;100588.41;3169261;28;19924;-66
2023/10/07 06:45:35;;;;;;;;;;;;;;;21.00;43.09;100583.59;3165776;28;20408;-65
2023/10/07 06:47:07;;;;;;;;;;;;;;;20.87;42.61;100590.75;3163050;28;19924;-65
2023/10/07 06:48:38;;;;;;;;;;;;;;;20.77;42.44;100587.13;3169414;28;19930;-64
2023/10/07 06:50:17;;;;;;;;;;;;;;;20.89;42.55;100588.84;3170688;28;20336;-65
2023/10/07 06:51:51;;;;;;;;;;;;;;;21.02;42.25;100581.66;3170853;28;20312;-65
2023/10/07 06:53:23;;;;;;;;;;;;;;;21.26;42.23;100591.31;3170413;28;20374;-65
2023/10/07 06:54:55;;;;;;;;;;;;;;;21.54;41.73;100598.84;3170755;28;19923;-65
2023/10/07 06:56:26;;;;;;;;;;;;;;;21.78;41.39;100597.88;3170857;28;19931;-66
2023/10/07 06:57:58;;;;;;;;;;;;;;;21.85;40.85;100598.22;3171060;28;19954;-66
2023/10/07 06:59:29;;;;;;;;;;;;;;;22.11;40.81;100602.28;3170444;28;19950;-66
2023/10/07 07:01:10;;;;;;;;;;;;;;;22.41;40.68;100598.97;3166001;28;19932;-66
2023/10/07 07:02:53;;;;;;;;;;;;;;;22.81;40.10;100595.66;3169916;28;19946;-67
2023/10/07 07:04:25;;;;;;;;;;;;;;;22.87;39.46;100595.16;3161751;28;19928;-66
2023/10/07 07:05:56;;;;;;;;;;;;;;;23.05;39.25;100595.44;3161252;28;19935;-67
2023/10/07 07:07:28;;;;;;;;;;;;;;;23.27;38.98;100588.28;3168117;28;19927;-66
2023/10/07 07:09:00;;;;;;;;;;;;;;;23.63;38.74;100586.91;3170222;28;19927;-69
2023/10/07 07:10:31;;;;;;;;;;;;;;;24.07;38.19;100582.16;3164916;28;19985;-65
2023/10/07 07:12:03;;;;;;;;;;;;;;;24.43;37.53;100587.84;3170456;28;20452;-68
2023/10/07 07:13:35;;;;;;;;;;;;;;;24.58;36.98;100586.47;3170549;28;20373;-65
2023/10/07 07:15:08;;;;;;;;;;;;;;;24.68;36.21;100586.44;3170366;28;19973;-63
2023/10/07 07:16:42;;;;;;;;;;;;;;;24.75;36.30;100584.88;3173660;27;20293;-64
2023/10/07 07:18:16;;;;;;;;;;;;;;;24.94;35.81;100574.22;3170004;28;20086;-64
2023/10/07 07:20:07;;;;;;;;;;;;;;;25.18;35.84;100579.09;3166471;28;19928;-67
2023/10/07 07:21:41;;;;;;;;;;;;;;;25.40;35.58;100577.88;3163837;28;20015;-65
2023/10/07 07:23:15;;;;;;;;;;;;;;;25.45;35.38;100574.78;3163305;28;19928;-62
2023/10/07 07:24:48;;;;;;;;;;;;;;;25.39;35.21;100578.88;3161595;28;19976;-67
2023/10/07 07:26:21;;;;;;;;;;;;;;;25.69;35.04;100576.91;3168898;28;19937;-67
2023/10/07 07:27:52;;;;;;;;;;;;;;;26.10;34.85;100575.59;3162012;28;19934;-63
2023/10/07 07:29:24;;;;;;;;;;;;;;;26.47;34.60;100577.28;3168775;28;20363;-63
2023/10/07 07:30:57;;;;;;;;;;;;;;;26.68;33.58;100570.78;3169297;28;19923;-64
2023/10/07 07:32:32;;;;;;;;;;;;;;;26.40;33.09;100578.03;3166959;28;19939;-66
2023/10/07 07:34:20;;;;;;;;;;;;;;;26.25;32.99;100573.22;3160015;28;19939;-61
2023/10/07 07:35:56;;;;;;;;;;;;;;;26.36;33.24;100585.53;3166784;28;19977;-64
2023/10/07 07:37:27;;;;;;;;;;;;;;;26.40;32.56;100580.72;3161509;28;19924;-64
2023/10/07 07:39:00;;;;;;;;;;;;;;;26.50;32.67;100582.34;3170136;28;19931;-65
2023/10/07 07:40:40;;;;;;;;;;;;;;;26.88;32.64;100576.78;3170142;28;19967;-65
2023/10/07 07:42:21;;;;;;;;;;;;;;;27.29;31.97;100571.75;3170313;28;19928;-64
2023/10/07 07:43:58;;;;;;;;;;;;;;;27.56;31.61;100566.19;3169459;28;19924;-63
2023/10/07 07:45:30;;;;;;;;;;;;;;;28.04;31.54;100559.34;3161675;28;20428;-64
2023/10/07 07:47:02;;;;;;;;;;;;;;;28.47;31.12;100565.44;3169987;28;19930;-63
2023/10/07 07:48:36;;;;;;;;;;;;;;;28.92;30.74;100561.41;3170361;28;19923;-63
2023/10/07 07:50:08;;;;;;;;;;;;;;;29.29;30.13;100556.50;3170303;28;19928;-62
2023/10/07 07:51:41;;;;;;;;;;;;;;;29.43;29.67;100553.94;3170307;28;20026;-65
2023/10/07 07:53:12;;;;;;;;;;;;;;;29.60;29.02;100552.00;3169836;28;19927;-66
2023/10/07 07:54:44;;;;;;;;;;;;;;;29.40;28.94;100553.41;3170426;28;19935;-69
2023/10/07 07:56:16;;;;;;;;;;;;;;;29.43;29.14;100548.56;3169951;28;20273;-65
2023/10/07 07:57:47;;;;;;;;;;;;;;;29.47;28.92;100554.41;3170693;28;19968;-66
2023/10/07 07:59:18;;;;;;;;;;;;;;;29.47;28.34;100546.38;3170129;28;20014;-67
2023/10/07 08:00:58;;;;;;;;;;;;;;;29.39;28.54;100549.06;3169806;28;19931;-65
2023/10/07 08:02:29;;;;;;;;;;;;;;;29.35;28.00;100550.44;3170265;28;19924;-66
2023/10/07 08:04:09;;;;;;;;;;;;;;;29.38;28.69;100544.72;3168264;28;20473;-64
2023/10/07 08:05:41;;;;;;;;;;;;;;;29.70;28.63;100539.25;3161016;28;19928;-65
2023/10/07 08:07:18;;;;;;;;;;;;;;;29.87;27.99;100541.81;3169721;28;20438;-65
2023/10/07 08:08:53;;;;;;;;;;;;;;;29.83;27.49;100537.84;3169844;28;19934;-65